sensor_id;sensor_type;location;lat;lon;timestamp;pressure;altitude;pressure_sealevel;temperature;humidity
5679;BME280;2862;52.560;13.566;2024-03-22T00:04:05;101235.22;;;9.14;100.00
5679;BME280;2862;52.560;13.566;2024-03-22T00:14:08;101216.09;;;9.20;100.00
5679;BME280;2862;52.560;13.566;2024-03-22T00:24:11;101211.94;;;9.03;100.00
5679;BME280;2862;52.560;13.566;2024-03-22T00:34:14;101194.66;;;9.09;100.00
5679;BME280;2862;52.560;13.566;2024-03-22T00:44:17;101190.91;;;8.86;100.00
5679;BME280;2862;52.560;13.566;2024-03-22T00:54:20;101189.31;;;9.09;100.00
5679;BME280;2862;52.560;13.566;2024-03-22T01:04:23;101164.25;;;8.86;100.00
5679;BME280;2862;52.560;13.566;2024-03-22T01:14:27;101157.41;;;8.94;100.00
5679;BME280;2862;52.560;13.566;2024-03-22T01:24:29;101147.16;;;8.88;100.00
5679;BME280;2862;52.560;13.566;2024-03-22T01:34:33;101141.22;;;8.85;100.00
5679;BME280;2862;52.560;13.566;2024-03-22T01:44:35;101128.50;;;8.75;100.00
5679;BME280;2862;52.560;13.566;2024-03-22T01:54:39;101117.09;;;8.61;100.00
5679;BME280;2862;52.560;13.566;2024-03-22T02:04:41;101112.28;;;8.66;100.00
5679;BME280;2862;52.560;13.566;2024-03-22T02:14:44;101103.78;;;8.61;100.00
5679;BME280;2862;52.560;13.566;2024-03-22T02:24:47;101095.31;;;8.54;100.00
5679;BME280;2862;52.560;13.566;2024-03-22T02:34:50;101072.63;;;8.61;100.00
5679;BME280;2862;52.560;13.566;2024-03-22T02:44:53;101056.31;;;8.53;100.00
5679;BME280;2862;52.560;13.566;2024-03-22T02:54:56;101042.03;;;8.54;100.00
5679;BME280;2862;52.560;13.566;2024-03-22T03:04:59;101032.44;;;8.51;100.00
5679;BME280;2862;52.560;13.566;2024-03-22T03:15:01;101029.78;;;8.51;100.00
5679;BME280;2862;52.560;13.566;2024-03-22T03:25:06;101011.00;;;8.40;100.00
5679;BME280;2862;52.560;13.566;2024-03-22T03:35:08;100979.97;;;8.27;100.00
5679;BME280;2862;52.560;13.566;2024-03-22T03:45:12;100980.00;;;8.39;100.00
5679;BME280;2862;52.560;13.566;2024-03-22T03:55:14;100965.06;;;8.37;100.00
5679;BME280;2862;52.560;13.566;2024-03-22T04:05:18;100965.50;;;8.43;100.00
5679;BME280;2862;52.560;13.566;2024-03-22T04:15:21;100936.72;;;8.36;100.00
5679;BME280;2862;52.560;13.566;2024-03-22T04:25:27;100917.44;;;8.45;100.00
5679;BME280;2862;52.560;13.566;2024-03-22T04:35:29;100910.50;;;8.42;100.00
5679;BME280;2862;52.560;13.566;2024-03-22T04:45:34;100885.56;;;8.43;100.00
5679;BME280;2862;52.560;13.566;2024-03-22T04:55:36;100867.72;;;8.57;100.00
5679;BME280;2862;52.560;13.566;2024-03-22T05:05:40;100874.34;;;8.51;100.00
5679;BME280;2862;52.560;13.566;2024-03-22T05:15:42;100868.31;;;8.49;100.00
5679;BME280;2862;52.560;13.566;2024-03-22T05:25:46;100862.28;;;8.58;100.00
5679;BME280;2862;52.560;13.566;2024-03-22T05:35:48;100845.38;;;8.46;100.00
5679;BME280;2862;52.560;13.566;2024-03-22T05:45:51;100831.84;;;8.49;100.00
5679;BME280;2862;52.560;13.566;2024-03-22T05:55:53;100826.16;;;8.54;100.00
5679;BME280;2862;52.560;13.566;2024-03-22T06:05:58;100814.25;;;8.95;100.00
5679;BME280;2862;52.560;13.566;2024-03-22T06:16:01;100790.78;;;9.11;100.00
5679;BME280;2862;52.560;13.566;2024-03-22T06:26:04;100782.19;;;9.08;100.00
5679;BME280;2862;52.560;13.566;2024-03-22T06:36:06;100781.25;;;9.31;100.00
5679;BME280;2862;52.560;13.566;2024-03-22T06:46:10;100773.94;;;9.22;100.00
5679;BME280;2862;52.560;13.566;2024-03-22T06:56:12;100765.75;;;9.36;100.00
5679;BME280;2862;52.560;13.566;2024-03-22T07:06:15;100753.97;;;10.06;99.80
5679;BME280;2862;52.560;13.566;2024-03-22T07:16:18;100754.50;;;9.77;100.00
5679;BME280;2862;52.560;13.566;2024-03-22T07:26:22;100740.03;;;9.69;100.00
5679;BME280;2862;52.560;13.566;2024-03-22T07:36:23;100735.66;;;9.79;100.00
5679;BME280;2862;52.560;13.566;2024-03-22T07:46:28;100744.53;;;9.68;100.00
5679;BME280;2862;52.560;13.566;2024-03-22T07:56:30;100737.25;;;9.81;100.00
5679;BME280;2862;52.560;13.566;2024-03-22T08:06:33;100728.13;;;9.95;100.00
5679;BME280;2862;52.560;13.566;2024-03-22T08:16:35;100709.19;;;9.98;100.00
5679;BME280;2862;52.560;13.566;2024-03-22T08:26:38;100706.94;;;10.26;100.00
5679;BME280;2862;52.560;13.566;2024-03-22T08:36:40;100697.59;;;10.31;100.00
5679;BME280;2862;52.560;13.566;2024-03-22T08:46:44;100660.25;;;10.41;100.00
5679;BME280;2862;52.560;13.566;2024-03-22T08:56:46;100655.09;;;10.49;99.63
5679;BME280;2862;52.560;13.566;2024-03-22T09:06:52;100638.38;;;10.68;99.46
5679;BME280;2862;52.560;13.566;2024-03-22T09:17:03;100634.41;;;11.14;97.41
5679;BME280;2862;52.560;13.566;2024-03-22T09:27:06;100595.63;;;11.39;94.34
5679;BME280;2862;52.560;13.566;2024-03-22T09:37:22;100607.03;;;11.81;92.13
5679;BME280;2862;52.560;13.566;2024-03-22T09:47:27;100602.56;;;12.30;89.86
5679;BME280;2862;52.560;13.566;2024-03-22T09:57:29;100582.41;;;12.16;90.09
5679;BME280;2862;52.560;13.566;2024-03-22T10:07:33;100582.53;;;12.25;90.43
5679;BME280;2862;52.560;13.566;2024-03-22T10:17:35;100560.94;;;12.07;90.67
5679;BME280;2862;52.560;13.566;2024-03-22T10:27:41;100550.94;;;12.28;90.11
5679;BME280;2862;52.560;13.566;2024-03-22T10:37:43;100548.03;;;12.49;88.39
5679;BME280;2862;52.560;13.566;2024-03-22T10:47:47;100530.06;;;13.06;84.24
5679;BME280;2862;52.560;13.566;2024-03-22T10:57:48;100527.41;;;13.34;82.67
5679;BME280;2862;52.560;13.566;2024-03-22T11:08:00;100506.28;;;13.84;80.92
5679;BME280;2862;52.560;13.566;2024-03-22T11:18:02;100489.66;;;13.53;81.44
5679;BME280;2862;52.560;13.566;2024-03-22T11:28:05;100467.22;;;13.54;81.61
5679;BME280;2862;52.560;13.566;2024-03-22T11:38:10;100480.50;;;13.00;83.97
5679;BME280;2862;52.560;13.566;2024-03-22T11:48:13;100483.84;;;12.85;86.71
5679;BME280;2862;52.560;13.566;2024-03-22T11:58:18;100462.16;;;12.96;94.75
5679;BME280;2862;52.560;13.566;2024-03-22T12:08:26;100437.84;;;12.80;97.70
5679;BME280;2862;52.560;13.566;2024-03-22T12:18:28;100434.03;;;12.45;100.00
5679;BME280;2862;52.560;13.566;2024-03-22T12:28:32;100427.13;;;12.42;100.00
5679;BME280;2862;52.560;13.566;2024-03-22T12:38:34;100425.06;;;12.27;100.00
5679;BME280;2862;52.560;13.566;2024-03-22T12:48:37;100421.91;;;11.94;100.00
5679;BME280;2862;52.560;13.566;2024-03-22T12:58:39;100404.84;;;11.76;100.00
5679;BME280;2862;52.560;13.566;2024-03-22T13:08:42;100398.22;;;11.60;100.00
5679;BME280;2862;52.560;13.566;2024-03-22T13:18:44;100377.94;;;11.48;100.00
5679;BME280;2862;52.560;13.566;2024-03-22T13:28:47;100354.13;;;11.45;100.00
5679;BME280;2862;52.560;13.566;2024-03-22T13:38:48;100337.75;;;11.58;100.00
5679;BME280;2862;52.560;13.566;2024-03-22T13:48:52;100326.19;;;11.57;100.00
5679;BME280;2862;52.560;13.566;2024-03-22T13:58:54;100316.06;;;11.61;100.00
5679;BME280;2862;52.560;13.566;2024-03-22T14:08:57;100302.88;;;11.96;100.00
5679;BME280;2862;52.560;13.566;2024-03-22T14:19:01;100292.63;;;11.82;100.00
5679;BME280;2862;52.560;13.566;2024-03-22T14:29:04;100290.09;;;11.71;100.00
5679;BME280;2862;52.560;13.566;2024-03-22T14:39:06;100275.41;;;11.75;100.00
5679;BME280;2862;52.560;13.566;2024-03-22T14:49:09;100257.53;;;12.13;100.00
5679;BME280;2862;52.560;13.566;2024-03-22T14:59:11;100242.41;;;11.94;100.00
5679;BME280;2862;52.560;13.566;2024-03-22T15:09:15;100228.03;;;11.85;100.00
5679;BME280;2862;52.560;13.566;2024-03-22T15:19:19;100229.31;;;11.81;100.00
5679;BME280;2862;52.560;13.566;2024-03-22T15:29:22;100216.88;;;11.80;100.00
5679;BME280;2862;52.560;13.566;2024-03-22T15:39:25;100211.72;;;11.69;100.00
5679;BME280;2862;52.560;13.566;2024-03-22T15:49:28;100203.16;;;11.65;100.00
5679;BME280;2862;52.560;13.566;2024-03-22T15:59:31;100204.16;;;11.64;100.00
5679;BME280;2862;52.560;13.566;2024-03-22T16:09:36;100201.50;;;11.55;100.00
5679;BME280;2862;52.560;13.566;2024-03-22T16:19:38;100207.59;;;11.47;100.00
5679;BME280;2862;52.560;13.566;2024-03-22T16:29:41;100189.16;;;11.34;100.00
5679;BME280;2862;52.560;13.566;2024-03-22T16:39:43;100191.59;;;11.28;100.00
5679;BME280;2862;52.560;13.566;2024-03-22T16:49:46;100197.66;;;11.30;100.00
5679;BME280;2862;52.560;13.566;2024-03-22T16:59:48;100205.53;;;11.22;100.00
5679;BME280;2862;52.560;13.566;2024-03-22T17:09:51;100191.59;;;11.18;100.00
5679;BME280;2862;52.560;13.566;2024-03-22T17:19:53;100179.22;;;11.17;100.00
5679;BME280;2862;52.560;13.566;2024-03-22T17:29:56;100186.56;;;11.15;100.00
5679;BME280;2862;52.560;13.566;2024-03-22T17:39:58;100194.59;;;11.05;100.00
5679;BME280;2862;52.560;13.566;2024-03-22T17:50:02;100180.97;;;10.99;100.00
5679;BME280;2862;52.560;13.566;2024-03-22T18:00:06;100184.47;;;10.99;100.00
5679;BME280;2862;52.560;13.566;2024-03-22T18:10:10;100171.34;;;11.06;100.00
5679;BME280;2862;52.560;13.566;2024-03-22T18:20:14;100161.94;;;11.02;100.00
5679;BME280;2862;52.560;13.566;2024-03-22T18:30:21;100176.28;;;11.10;100.00
5679;BME280;2862;52.560;13.566;2024-03-22T18:40:23;100175.75;;;11.07;100.00
5679;BME280;2862;52.560;13.566;2024-03-22T18:50:27;100168.56;;;11.07;100.00
5679;BME280;2862;52.560;13.566;2024-03-22T19:00:28;100159.13;;;11.13;100.00
5679;BME280;2862;52.560;13.566;2024-03-22T19:10:32;100151.59;;;11.26;100.00
5679;BME280;2862;52.560;13.566;2024-03-22T19:20:33;100140.31;;;11.23;100.00
5679;BME280;2862;52.560;13.566;2024-03-22T19:30:37;100134.13;;;11.22;100.00
5679;BME280;2862;52.560;13.566;2024-03-22T19:40:39;100121.47;;;11.24;100.00
5679;BME280;2862;52.560;13.566;2024-03-22T19:50:43;100120.78;;;11.12;100.00
5679;BME280;2862;52.560;13.566;2024-03-22T20:00:45;100114.66;;;11.02;100.00
5679;BME280;2862;52.560;13.566;2024-03-22T20:10:48;100102.97;;;10.94;100.00
5679;BME280;2862;52.560;13.566;2024-03-22T20:20:49;100105.19;;;11.08;100.00
5679;BME280;2862;52.560;13.566;2024-03-22T20:30:52;100106.28;;;11.15;100.00
5679;BME280;2862;52.560;13.566;2024-03-22T20:40:54;100088.00;;;11.01;100.00
